Time;durP1;ratioP1;P1;durP2;ratioP2;P2;SDS_P1;SDS_P2;PMS_P1;PMS_P2;Temp;Humidity;BMP_temperature;BMP_pressure;BME280_temperature;BME280_humidity;BME280_pressure;Samples;Min_cycle;Max_cycle;Signal;HPM_P1;HPM_P2
2020/12/13 00:01:48;;;;;;;65.63;37.72;;;;;;;5.51;100.00;95843.97;4983075;28;20037;-62
2020/12/13 00:04:14;;;;;;;82.28;48.65;;;;;;;5.45;100.00;95839.94;4967132;28;20498;-62
2020/12/13 00:06:39;;;;;;;83.15;45.15;;;;;;;5.44;100.00;95844.63;4968676;28;20486;-62
2020/12/13 00:09:05;;;;;;;72.40;40.70;;;;;;;5.44;100.00;95839.13;4968547;28;20057;-63
2020/12/13 00:11:31;;;;;;;51.47;27.83;;;;;;;5.28;100.00;95821.22;4968793;28;20027;-62
2020/12/13 00:13:57;;;;;;;46.97;24.73;;;;;;;5.33;100.00;95842.84;4966926;28;20337;-61
2020/12/13 00:16:22;;;;;;;36.55;20.27;;;;;;;5.33;100.00;95842.84;4968678;28;20474;-62
2020/12/13 00:18:48;;;;;;;32.88;17.27;;;;;;;5.25;100.00;95846.66;4967064;28;20026;-62
2020/12/13 00:21:14;;;;;;;27.80;16.30;;;;;;;5.16;100.00;95837.84;4968402;28;20043;-61
2020/12/13 00:23:40;;;;;;;26.02;15.40;;;;;;;4.94;100.00;95831.19;4968531;28;20494;-63
2020/12/13 00:26:10;;;;;;;26.63;14.85;;;;;;;4.81;100.00;95820.72;4968102;28;20118;-63
2020/12/13 00:28:36;;;;;;;26.90;14.73;;;;;;;4.58;100.00;95780.34;4982362;28;20039;-62
2020/12/13 00:31:03;;;;;;;22.50;12.55;;;;;;;4.96;100.00;95833.56;4968149;28;20041;-62
2020/12/13 00:33:28;;;;;;;20.98;11.38;;;;;;;3.81;100.00;95663.72;4968048;28;20101;-63
2020/12/13 00:35:54;;;;;;;15.68;9.27;;;;;;;4.87;100.00;95843.97;4980931;28;20436;-62
2020/12/13 00:38:20;;;;;;;13.38;7.38;;;;;;;4.86;100.00;95850.59;4986850;28;20053;-63
2020/12/13 00:40:49;;;;;;;26.42;9.52;;;;;;;4.78;100.00;95843.41;4985899;28;20504;-63
2020/12/13 00:43:14;;;;;;;17.60;9.68;;;;;;;4.73;100.00;95847.22;4987200;28;20033;-62
2020/12/13 00:45:40;;;;;;;15.20;8.30;;;;;;;3.97;100.00;95754.84;4987100;28;20822;-63
2020/12/13 00:48:05;;;;;;;17.92;8.60;;;;;;;4.57;100.00;95850.06;4987107;28;20053;-63
2020/12/13 00:50:33;;;;;;;19.88;9.05;;;;;;;4.53;100.00;95854.69;4987065;28;20105;-63
2020/12/13 00:52:59;;;;;;;24.45;11.70;;;;;;;4.08;100.00;95799.69;4987478;28;20042;-63
2020/12/13 00:55:24;;;;;;;21.92;11.65;;;;;;;4.47;100.00;95866.28;4987111;28;20402;-63
2020/12/13 00:57:50;;;;;;;23.58;10.80;;;;;;;4.35;100.00;95869.94;4987332;28;20149;-62
2020/12/13 01:00:15;;;;;;;24.50;11.02;;;;;;;4.42;100.00;95867.38;4986931;28;20076;-63
2020/12/13 01:02:41;;;;;;;27.65;13.52;;;;;;;4.49;100.00;95858.47;4983674;28;20090;-64
2020/12/13 01:05:06;;;;;;;22.73;10.57;;;;;;;4.34;100.00;95845.66;4986851;28;20109;-63
2020/12/13 01:07:31;;;;;;;26.80;10.93;;;;;;;4.40;100.00;95871.59;4987036;28;20540;-63
2020/12/13 01:09:57;;;;;;;15.93;9.02;;;;;;;4.44;100.00;95876.00;4986623;28;20045;-62
2020/12/13 01:12:22;;;;;;;12.57;7.88;;;;;;;4.55;100.00;95895.44;4987125;28;20509;-62
2020/12/13 01:14:48;;;;;;;12.32;6.70;;;;;;;4.59;100.00;95875.16;5001548;28;20069;-63
2020/12/13 01:17:14;;;;;;;13.77;8.35;;;;;;;3.88;100.00;95776.16;5001383;28;20085;-63
2020/12/13 01:19:39;;;;;;;10.98;6.80;;;;;;;4.71;100.00;95892.63;4986692;28;20026;-62
2020/12/13 01:22:06;;;;;;;11.23;6.40;;;;;;;4.54;100.00;95861.75;5001474;28;20599;-63
2020/12/13 01:24:32;;;;;;;52.10;21.00;;;;;;;4.74;100.00;95897.41;4986782;28;20499;-64
2020/12/13 01:26:57;;;;;;;22.48;9.43;;;;;;;4.38;100.00;95841.81;4984138;28;20050;-63
2020/12/13 01:29:23;;;;;;;18.70;8.88;;;;;;;3.60;100.00;95707.09;4986535;28;20625;-63
2020/12/13 01:31:48;;;;;;;40.15;21.05;;;;;;;4.77;100.00;95902.97;4986715;28;20034;-63
2020/12/13 01:34:13;;;;;;;43.42;19.35;;;;;;;4.41;100.00;95852.06;4986236;28;20054;-64
2020/12/13 01:36:39;;;;;;;35.33;18.98;;;;;;;4.66;100.00;95875.31;4986248;28;20042;-63
2020/12/13 01:39:04;;;;;;;39.08;20.73;;;;;;;3.88;100.00;95800.81;4986208;28;20074;-62
2020/12/13 01:41:30;;;;;;;51.35;23.73;;;;;;;4.54;100.00;95856.25;4819285;28;5001097;-62
2020/12/13 01:43:56;;;;;;;43.70;22.23;;;;;;;4.74;100.00;95902.88;5005690;28;20517;-63
2020/12/13 01:46:22;;;;;;;45.17;24.35;;;;;;;4.69;100.00;95907.47;5005935;28;20041;-62
2020/12/13 01:48:48;;;;;;;49.58;27.17;;;;;;;4.86;100.00;95905.47;5004813;28;20393;-62
2020/12/13 01:51:27;;;;;;;46.35;25.55;;;;;;;4.30;100.00;95826.38;5003855;28;20103;-64
2020/12/13 01:53:55;;;;;;;32.35;17.02;;;;;;;4.05;100.00;95846.97;5005543;28;20028;-62
2020/12/13 01:56:22;;;;;;;26.48;14.85;;;;;;;4.28;100.00;95901.91;5005779;28;20457;-64
2020/12/13 01:58:52;;;;;;;38.75;15.57;;;;;;;4.41;100.00;95909.63;5005591;28;20068;-62
2020/12/13 02:01:18;;;;;;;31.42;16.27;;;;;;;4.55;100.00;95901.72;5005700;28;20475;-63
2020/12/13 02:03:53;;;;;;;27.45;13.27;;;;;;;4.16;100.00;95834.31;5005142;28;20073;-63
2020/12/13 02:06:25;;;;;;;23.05;13.35;;;;;;;4.71;100.00;95904.38;5003963;28;20050;-62
2020/12/13 02:08:51;;;;;;;22.88;12.57;;;;;;;4.82;100.00;95899.91;5020308;28;20547;-63
2020/12/13 02:11:21;;;;;;;30.75;15.45;;;;;;;4.58;100.00;95851.63;5005197;28;20045;-64
2020/12/13 02:13:50;;;;;;;28.25;15.15;;;;;;;5.05;100.00;95903.53;5004881;28;20030;-63
2020/12/13 02:16:16;;;;;;;22.55;12.98;;;;;;;5.06;100.00;95883.16;5005060;28;20276;-63
2020/12/13 02:18:42;;;;;;;24.60;13.48;;;;;;;5.08;100.00;95866.31;5003663;28;20044;-63
2020/12/13 02:21:12;;;;;;;28.00;14.77;;;;;;;5.21;100.00;95895.19;5005350;28;20034;-63
2020/12/13 02:23:39;;;;;;;32.33;16.98;;;;;;;5.32;100.00;95896.19;5005199;28;20018;-63
2020/12/13 02:26:13;;;;;;;36.03;19.23;;;;;;;5.41;100.00;95888.50;5004856;28;20034;-62
2020/12/13 02:28:39;;;;;;;38.40;18.20;;;;;;;5.40;100.00;95906.13;5004933;28;20030;-63
2020/12/13 02:31:06;;;;;;;29.23;16.48;;;;;;;5.33;100.00;95890.31;5004872;28;20049;-63
2020/12/13 02:33:32;;;;;;;30.27;16.33;;;;;;;5.38;100.00;95905.69;5003627;28;20527;-63
2020/12/13 02:35:58;;;;;;;37.78;19.42;;;;;;;5.32;100.00;95912.66;5005024;28;20021;-63
2020/12/13 02:38:24;;;;;;;37.88;19.10;;;;;;;4.99;100.00;95866.56;5003492;28;20580;-63
2020/12/13 02:40:49;;;;;;;33.23;16.70;;;;;;;4.59;100.00;95800.34;4832465;28;5002168;-64
2020/12/13 02:43:15;;;;;;;33.83;15.10;;;;;;;4.74;100.00;95826.09;5018759;28;20026;-63
2020/12/13 02:45:40;;;;;;;26.50;13.82;;;;;;;5.37;100.00;95920.59;5005091;28;20507;-63
2020/12/13 02:48:07;;;;;;;31.27;15.27;;;;;;;5.34;100.00;95918.56;5004489;28;20120;-62
2020/12/13 02:50:32;;;;;;;20.20;10.35;;;;;;;5.09;100.00;95865.94;5005235;28;20032;-65
2020/12/13 02:52:58;;;;;;;12.90;6.70;;;;;;;5.54;100.00;95923.66;5005290;28;20891;-61
2020/12/13 02:55:24;;;;;;;16.17;7.82;;;;;;;5.51;100.00;95920.84;5004847;28;20500;-61
2020/12/13 02:57:50;;;;;;;17.45;8.50;;;;;;;5.45;100.00;95916.81;5005175;28;20045;-62
2020/12/13 03:00:15;;;;;;;18.98;8.90;;;;;;;5.60;100.00;95916.72;5005738;28;20034;-62
2020/12/13 03:02:41;;;;;;;24.30;12.02;;;;;;;5.13;100.00;95844.06;5008927;28;20037;-61
2020/12/13 03:05:06;;;;;;;25.98;11.23;;;;;;;5.67;100.00;95924.28;5008846;28;20480;-62
2020/12/13 03:07:32;;;;;;;20.83;10.20;;;;;;;5.79;100.00;95924.09;5007119;28;20073;-62
2020/12/13 03:09:57;;;;;;;17.55;10.20;;;;;;;5.83;100.00;95916.75;5006959;28;20080;-61
2020/12/13 03:12:25;;;;;;;17.05;9.77;;;;;;;5.84;100.00;95912.81;5008475;28;20480;-62
2020/12/13 03:14:52;;;;;;;27.23;12.27;;;;;;;5.82;100.00;95909.63;5008582;28;20136;-61
2020/12/13 03:17:17;;;;;;;29.55;13.98;;;;;;;5.83;100.00;95916.75;5008673;28;20116;-62
2020/12/13 03:19:43;;;;;;;24.65;11.70;;;;;;;5.52;100.00;95826.31;5008552;28;20431;-61
2020/12/13 03:22:08;;;;;;;21.17;10.57;;;;;;;6.04;100.00;95906.88;5008666;28;20044;-63
2020/12/13 03:24:34;;;;;;;22.85;11.32;;;;;;;6.07;100.00;95905.34;5008359;28;20048;-61
2020/12/13 03:26:59;;;;;;;23.92;11.20;;;;;;;6.15;100.00;95907.03;5006166;28;20060;-62
2020/12/13 03:29:24;;;;;;;20.40;11.15;;;;;;;6.18;100.00;95911.03;5006468;28;20048;-62
2020/12/13 03:31:50;;;;;;;21.60;10.55;;;;;;;5.44;100.00;95794.41;5008218;28;20045;-62
2020/12/13 03:34:15;;;;;;;42.35;25.20;;;;;;;5.81;100.00;95847.59;5008131;28;20112;-61
2020/12/13 03:36:41;;;;;;;56.15;32.58;;;;;;;5.77;100.00;95835.78;5008231;28;20072;-61
2020/12/13 03:39:06;;;;;;;28.83;15.15;;;;;;;5.87;100.00;95843.41;5008105;28;20032;-64
2020/12/13 03:41:31;;;;;;;17.23;9.50;;;;;;;6.34;100.00;95895.94;5006498;28;20038;-63
2020/12/13 03:43:57;;;;;;;15.02;8.10;;;;;;;6.18;100.00;95898.03;5008387;28;20420;-63
2020/12/13 03:46:22;;;;;;;13.88;8.55;;;;;;;5.47;100.00;95771.72;5006548;28;20041;-63
2020/12/13 03:48:48;;;;;;;16.13;9.15;;;;;;;5.74;100.00;95809.81;5007837;28;20062;-63
2020/12/13 03:51:13;;;;;;;23.27;10.45;;;;;;;6.30;100.00;95886.84;5006285;28;20046;-62
2020/12/13 03:53:38;;;;;;;22.50;10.48;;;;;;;6.40;100.00;95886.22;5008265;28;20025;-62
2020/12/13 03:56:04;;;;;;;23.52;12.85;;;;;;;6.43;100.00;95890.97;5008274;28;20034;-62
2020/12/13 03:58:29;;;;;;;35.72;16.55;;;;;;;6.40;100.00;95904.66;5006512;28;20479;-63
2020/12/13 04:00:54;;;;;;;32.80;16.05;;;;;;;6.38;100.00;95921.53;5022724;28;20137;-63
2020/12/13 04:03:20;;;;;;;30.00;15.18;;;;;;;5.49;100.00;95752.91;5007729;28;20038;-62
2020/12/13 04:05:45;;;;;;;23.83;10.85;;;;;;;6.46;100.00;95895.72;5007250;28;20042;-65
2020/12/13 04:08:11;;;;;;;22.40;11.93;;;;;;;6.36;100.00;95890.88;5007568;28;20064;-63
2020/12/13 04:10:36;;;;;;;18.80;9.75;;;;;;;5.95;100.00;95837.66;5007599;28;20033;-62
2020/12/13 04:13:02;;;;;;;18.50;9.40;;;;;;;6.18;100.00;95895.28;5007025;28;20041;-62
2020/12/13 04:15:27;;;;;;;17.25;10.02;;;;;;;6.15;100.00;95890.53;5007330;28;20034;-63
2020/12/13 04:17:52;;;;;;;20.55;10.50;;;;;;;5.91;100.00;95841.50;5005667;28;20496;-63
2020/12/13 04:20:18;;;;;;;36.38;15.68;;;;;;;5.34;100.00;95767.59;5007533;28;20038;-62
2020/12/13 04:22:43;;;;;;;34.30;17.08;;;;;;;6.32;100.00;95900.22;5005889;28;20041;-64
2020/12/13 04:25:09;;;;;;;27.42;12.50;;;;;;;5.68;100.00;95766.53;5007077;28;20033;-63
2020/12/13 04:27:34;;;;;;;18.92;10.05;;;;;;;5.97;100.00;95824.31;5006780;28;20061;-62
2020/12/13 04:30:00;;;;;;;18.45;11.40;;;;;;;6.22;100.00;95868.66;5005720;28;20040;-63
2020/12/13 04:32:26;;;;;;;22.50;12.38;;;;;;;6.42;100.00;95900.38;5005911;28;20046;-63
2020/12/13 04:34:52;;;;;;;20.23;10.68;;;;;;;6.42;100.00;95910.59;5007063;28;20096;-62
2020/12/13 04:37:19;;;;;;;18.30;10.32;;;;;;;6.18;100.00;95856.03;5005500;28;20081;-63
2020/12/13 04:39:45;;;;;;;17.30;10.77;;;;;;;6.41;100.00;95876.78;5005381;28;20057;-62
2020/12/13 04:42:10;;;;;;;23.98;11.52;;;;;;;5.99;100.00;95816.50;5005209;28;20077;-62
2020/12/13 04:44:37;;;;;;;19.55;12.10;;;;;;;6.59;100.00;95904.56;5006925;28;20076;-62
2020/12/13 04:47:07;;;;;;;25.48;13.65;;;;;;;6.10;100.00;95844.16;5021964;28;20072;-62
2020/12/13 04:49:35;;;;;;;31.35;16.67;;;;;;;6.22;100.00;95841.16;5005224;28;20484;-62
2020/12/13 04:52:03;;;;;;;50.53;31.88;;;;;;;6.73;100.00;95911.03;5004925;28;20432;-62
2020/12/13 04:54:29;;;;;;;51.33;30.00;;;;;;;6.78;100.00;95916.19;5006693;28;20040;-62
2020/12/13 04:56:57;;;;;;;37.22;19.67;;;;;;;6.69;100.00;95907.44;5006702;28;20116;-63
2020/12/13 04:59:22;;;;;;;28.20;15.95;;;;;;;6.29;100.00;95862.47;5006882;28;20372;-62
2020/12/13 05:01:48;;;;;;;29.30;15.02;;;;;;;6.32;100.00;95906.53;5004848;28;20033;-63
2020/12/13 05:04:15;;;;;;;29.63;14.45;;;;;;;5.90;100.00;95834.41;5006490;28;20501;-65
2020/12/13 05:06:42;;;;;;;32.75;13.30;;;;;;;6.11;100.00;95895.22;5006413;28;20412;-62
2020/12/13 05:09:08;;;;;;;26.10;13.82;;;;;;;6.49;100.00;95905.19;5006349;28;20397;-62
2020/12/13 05:11:33;;;;;;;25.55;12.90;;;;;;;6.35;100.00;95897.53;5004751;28;20098;-63
2020/12/13 05:13:59;;;;;;;37.67;20.98;;;;;;;6.53;100.00;95917.81;5004685;28;20057;-62
2020/12/13 05:16:24;;;;;;;35.08;16.13;;;;;;;6.53;100.00;95928.81;5006972;28;20046;-62
2020/12/13 05:18:52;;;;;;;40.92;20.33;;;;;;;6.40;100.00;95908.22;5006549;28;20084;-62
2020/12/13 05:21:24;;;;;;;32.80;19.70;;;;;;;6.64;100.00;95940.78;5004633;28;20572;-62
2020/12/13 05:23:50;;;;;;;40.78;20.45;;;;;;;6.60;100.00;95928.94;5006166;28;20025;-63
2020/12/13 05:26:17;;;;;;;39.10;19.67;;;;;;;6.67;100.00;95934.53;5004398;28;20049;-62
2020/12/13 05:28:50;;;;;;;40.70;18.70;;;;;;;6.46;100.00;95916.94;5006040;28;20034;-62
2020/12/13 05:31:21;;;;;;;42.65;22.15;;;;;;;6.66;100.00;95938.44;5004505;28;20041;-63
2020/12/13 05:33:52;;;;;;;42.97;18.92;;;;;;;6.48;100.00;95912.63;5006373;28;20034;-62
2020/12/13 05:36:18;;;;;;;54.15;23.20;;;;;;;5.64;100.00;95815.91;5005862;28;20563;-62
2020/12/13 05:38:45;;;;;;;64.97;27.88;;;;;;;5.81;100.00;95858.59;5005892;28;20579;-62
2020/12/13 05:41:12;;;;;;;71.63;30.35;;;;;;;6.06;100.00;95837.78;5005650;28;20073;-62
2020/12/13 05:51:40;;;;;;;40.22;18.85;;;;;;;6.55;100.00;95962.25;5005380;28;20045;-62
2020/12/13 05:54:24;;;;;;;43.20;20.02;;;;;;;6.65;100.00;95936.06;5005415;28;20056;-62
2020/12/13 05:57:00;;;;;;;41.33;18.55;;;;;;;6.79;100.00;95961.84;5005601;28;20481;-62
2020/12/13 05:59:29;;;;;;;47.80;21.90;;;;;;;6.74;100.00;95945.63;5004024;28;20452;-62
2020/12/13 06:01:57;;;;;;;45.97;20.73;;;;;;;6.88;100.00;95959.59;5003698;28;20566;-63
2020/12/13 06:04:28;;;;;;;40.03;22.85;;;;;;;6.98;100.00;95964.44;5005515;28;20193;-62
2020/12/13 06:06:56;;;;;;;38.08;21.98;;;;;;;6.39;100.00;95862.63;5005500;28;20041;-62
2020/12/13 06:09:34;;;;;;;42.30;21.90;;;;;;;7.07;100.00;95964.16;5003977;28;20548;-62
2020/12/13 06:12:12;;;;;;;34.22;17.23;;;;;;;6.85;100.00;95935.56;5005186;28;20125;-62
2020/12/13 06:14:41;;;;;;;38.58;18.95;;;;;;;7.10;100.00;95969.72;5000178;28;20045;-63
2020/12/13 06:17:07;;;;;;;44.25;21.23;;;;;;;7.15;100.00;95974.91;4984179;28;20057;-62
2020/12/13 06:19:34;;;;;;;37.75;20.27;;;;;;;7.19;100.00;95977.69;4984728;28;20039;-63
2020/12/13 06:22:01;;;;;;;42.67;22.75;;;;;;;7.36;100.00;95977.91;4985857;28;20042;-63
2020/12/13 06:24:27;;;;;;;36.38;20.10;;;;;;;6.83;100.00;95882.84;4986050;28;20037;-61
2020/12/13 06:26:54;;;;;;;40.92;24.10;;;;;;;7.39;100.00;95966.16;4985384;28;20145;-62
2020/12/13 06:29:21;;;;;;;45.08;22.55;;;;;;;7.40;100.00;95994.47;4985619;28;20038;-62
2020/12/13 06:31:48;;;;;;;39.85;20.02;;;;;;;7.43;100.00;95983.50;4985401;28;20045;-62
2020/12/13 06:34:13;;;;;;;33.75;18.20;;;;;;;7.54;100.00;95989.91;4985732;28;20026;-63
2020/12/13 06:36:40;;;;;;;47.10;24.05;;;;;;;7.21;100.00;95987.16;4998072;28;20049;-62
2020/12/13 06:39:17;;;;;;;42.50;26.15;;;;;;;7.49;100.00;95965.44;5005250;28;20030;-62
2020/12/13 06:41:44;;;;;;;83.10;46.53;;;;;;;7.35;100.00;95936.97;5003528;28;20052;-63
2020/12/13 06:44:11;;;;;;;221.98;121.45;;;;;;;7.31;98.68;95912.13;5005286;28;20030;-62
2020/12/13 06:46:39;;;;;;;64.80;37.85;;;;;;;7.49;98.18;95937.13;5004791;28;20033;-62
2020/12/13 06:49:05;;;;;;;68.85;38.92;;;;;;;7.66;99.43;96003.47;5004633;28;20038;-63
2020/12/13 06:51:35;;;;;;;67.43;39.22;;;;;;;7.67;100.00;95999.53;5004814;28;20045;-63
2020/12/13 06:54:06;;;;;;;60.42;38.63;;;;;;;7.74;100.00;96010.59;5004799;28;20084;-63
2020/12/13 06:56:32;;;;;;;59.38;31.25;;;;;;;7.69;100.00;96033.03;5002991;28;20123;-63
2020/12/13 06:59:00;;;;;;;89.05;45.80;;;;;;;7.65;100.00;96018.38;5004590;28;20100;-62
2020/12/13 07:01:26;;;;;;;94.75;52.22;;;;;;;7.76;98.44;96024.03;5004890;28;20476;-62
2020/12/13 07:03:52;;;;;;;67.43;36.15;;;;;;;7.81;98.19;96014.63;5004275;28;20026;-62
2020/12/13 07:06:26;;;;;;;66.28;38.15;;;;;;;7.79;98.92;96011.47;5004732;28;20026;-62
2020/12/13 07:08:55;;;;;;;65.05;36.17;;;;;;;7.35;99.99;95970.81;5004500;28;20064;-62
2020/12/13 07:11:24;;;;;;;98.93;55.95;;;;;;;7.28;99.34;95954.22;5004668;28;20038;-62
2020/12/13 07:13:51;;;;;;;59.80;30.95;;;;;;;7.66;100.00;96020.00;5004490;28;20115;-63
2020/12/13 07:16:35;;;;;;;154.25;72.57;;;;;;;7.76;99.90;96020.47;5004673;28;20044;-64
2020/12/13 07:19:04;;;;;;;93.55;47.53;;;;;;;7.17;100.00;95947.78;5002883;28;20037;-61
2020/12/13 07:21:30;;;;;;;86.05;40.83;;;;;;;7.84;100.00;96052.47;5003054;28;20069;-62
2020/12/13 07:24:00;;;;;;;55.50;27.90;;;;;;;7.38;100.00;95981.06;5003055;28;20065;-62
2020/12/13 07:26:33;;;;;;;42.40;23.83;;;;;;;7.59;99.62;95989.59;5004572;28;20042;-63
2020/12/13 07:29:00;;;;;;;60.47;33.65;;;;;;;7.99;98.23;96032.13;5019310;28;20072;-61
2020/12/13 07:31:29;;;;;;;42.08;23.35;;;;;;;7.99;97.60;96026.63;5002762;28;20588;-63
2020/12/13 07:33:55;;;;;;;40.40;22.08;;;;;;;7.79;99.54;96028.00;5002865;28;20196;-62
2020/12/13 07:36:20;;;;;;;45.38;25.85;;;;;;;7.74;100.00;96013.38;5002989;28;20501;-62
2020/12/13 07:38:46;;;;;;;46.05;26.70;;;;;;;8.03;100.00;96044.03;5004568;28;20034;-63
2020/12/13 07:41:17;;;;;;;41.42;24.33;;;;;;;7.67;99.97;95958.19;5004456;28;20076;-63
2020/12/13 07:43:55;;;;;;;48.38;26.65;;;;;;;8.36;96.05;96036.47;5004692;28;20052;-62
2020/12/13 07:46:21;;;;;;;30.23;17.75;;;;;;;8.12;97.68;96037.03;5004077;28;20045;-62
2020/12/13 07:48:47;;;;;;;33.35;18.25;;;;;;;8.17;96.54;96041.41;5007445;28;20109;-62
2020/12/13 07:51:13;;;;;;;35.70;18.20;;;;;;;8.16;96.07;96020.50;5006508;28;20133;-64
2020/12/13 07:53:39;;;;;;;32.47;18.10;;;;;;;8.19;97.31;96036.31;5010167;28;20062;-63
2020/12/13 07:56:04;;;;;;;35.58;20.10;;;;;;;8.34;97.15;96032.53;5009722;28;20097;-62
2020/12/13 07:58:30;;;;;;;32.90;19.75;;;;;;;8.01;95.06;95966.38;5008766;28;20503;-63
2020/12/13 08:01:11;;;;;;;33.08;19.60;;;;;;;8.47;95.05;96056.69;5007398;28;20046;-62
2020/12/13 08:03:43;;;;;;;35.85;21.33;;;;;;;8.25;94.92;96001.72;5007608;28;20061;-64
2020/12/13 08:06:09;;;;;;;45.03;26.63;;;;;;;8.35;94.26;96012.03;5007510;28;20077;-62
2020/12/13 08:08:44;;;;;;;38.85;23.25;;;;;;;8.65;94.32;96054.06;5007550;28;20547;-62
2020/12/13 08:11:13;;;;;;;42.55;24.83;;;;;;;8.76;93.48;96049.44;5007555;28;20037;-61
2020/12/13 08:13:54;;;;;;;45.13;26.70;;;;;;;8.86;93.63;96054.25;5005895;28;20685;-62
2020/12/13 08:16:23;;;;;;;67.13;38.05;;;;;;;9.01;91.15;96050.41;5005468;28;20046;-62
2020/12/13 08:18:50;;;;;;;90.35;51.75;;;;;;;8.39;91.12;95946.66;5007142;28;20641;-62
2020/12/13 08:21:31;;;;;;;81.47;49.72;;;;;;;9.07;91.99;96054.41;5007231;28;20034;-62
2020/12/13 08:23:58;;;;;;;72.28;44.25;;;;;;;8.95;92.09;96052.75;5007302;28;20030;-62
2020/12/13 08:26:25;;;;;;;77.45;45.22;;;;;;;8.72;92.20;95998.94;5005304;28;20105;-61
2020/12/13 08:28:52;;;;;;;90.72;49.35;;;;;;;8.28;91.79;95913.47;5007094;28;20042;-62
2020/12/13 08:31:22;;;;;;;85.35;49.40;;;;;;;8.71;89.05;96013.94;5007015;28;20432;-62
2020/12/13 08:33:47;;;;;;;85.88;47.08;;;;;;;9.37;89.99;96051.44;5007106;28;20030;-62
2020/12/13 08:36:21;;;;;;;74.00;43.53;;;;;;;9.53;88.48;96055.44;5001852;28;20398;-62
2020/12/13 08:39:08;;;;;;;78.18;41.63;;;;;;;9.47;88.50;96045.19;4987101;28;20035;-63
2020/12/13 08:41:34;;;;;;;72.57;40.53;;;;;;;9.07;88.55;95999.16;4987396;28;20039;-62
2020/12/13 08:44:00;;;;;;;69.30;40.42;;;;;;;9.51;88.34;96030.19;4987294;28;20026;-62
2020/12/13 08:46:42;;;;;;;64.68;38.35;;;;;;;9.63;87.40;96035.38;4987608;28;20071;-61
2020/12/13 08:49:07;;;;;;;62.08;36.78;;;;;;;9.57;87.59;96016.78;4985117;28;20042;-62
2020/12/13 08:51:33;;;;;;;52.90;30.30;;;;;;;9.26;86.46;95967.69;4986735;28;20058;-63
2020/12/13 08:54:03;;;;;;;43.40;27.00;;;;;;;9.30;88.05;96040.31;4985567;28;20030;-62
2020/12/13 08:56:37;;;;;;;36.65;21.95;;;;;;;9.30;89.06;96041.13;4985403;28;20096;-63
2020/12/13 08:59:07;;;;;;;31.83;19.33;;;;;;;9.15;91.13;96033.94;4985592;28;20030;-63
2020/12/13 09:01:36;;;;;;;28.80;16.30;;;;;;;9.21;91.00;96032.41;4987163;28;20038;-62
2020/12/13 09:04:16;;;;;;;32.58;18.55;;;;;;;9.11;90.85;96038.66;4985400;28;20081;-62
2020/12/13 09:06:52;;;;;;;33.85;17.73;;;;;;;9.14;90.85;96038.66;4984876;28;20104;-63
2020/12/13 09:09:18;;;;;;;26.48;14.65;;;;;;;9.16;89.29;96028.03;4985139;28;20469;-64
2020/12/13 09:11:43;;;;;;;27.35;14.80;;;;;;;8.41;89.84;95916.72;4986817;28;20109;-62
2020/12/13 09:14:09;;;;;;;21.58;12.77;;;;;;;9.48;88.70;96022.69;4987002;28;20030;-62
2020/12/13 09:16:34;;;;;;;25.58;14.50;;;;;;;9.66;89.24;96031.81;4985167;28;20035;-63
2020/12/13 09:19:10;;;;;;;21.38;12.50;;;;;;;9.73;88.18;96026.34;4986549;28;20026;-62
2020/12/13 09:21:57;;;;;;;34.28;19.38;;;;;;;9.79;87.60;96016.47;4986819;28;20075;-64
2020/12/13 09:24:33;;;;;;;87.40;41.45;;;;;;;9.74;88.49;96025.13;4985064;28;20038;-62
2020/12/13 09:27:07;;;;;;;58.20;32.15;;;;;;;9.87;89.83;96020.84;4985948;28;20054;-62
2020/12/13 09:29:34;;;;;;;59.88;30.25;;;;;;;10.05;88.13;96016.13;4986368;28;20049;-62
2020/12/13 09:32:00;;;;;;;17.42;10.75;;;;;;;10.13;86.04;96012.22;4986376;28;20049;-62
2020/12/13 09:34:26;;;;;;;40.10;22.92;;;;;;;10.09;87.10;96019.75;4986353;28;20085;-63
2020/12/13 09:36:52;;;;;;;29.30;16.35;;;;;;;9.38;87.19;95910.09;4999810;28;20064;-63
2020/12/13 09:39:18;;;;;;;21.55;12.18;;;;;;;9.74;88.44;96022.38;5005814;28;20042;-62
2020/12/13 09:41:43;;;;;;;18.02;11.68;;;;;;;9.64;90.30;96012.06;5005748;28;20332;-62
2020/12/13 09:44:09;;;;;;;19.60;11.90;;;;;;;9.90;89.74;96020.06;5005447;28;20052;-62
2020/12/13 09:46:34;;;;;;;17.55;9.95;;;;;;;10.16;86.64;96019.75;5005627;28;20041;-63
2020/12/13 09:49:00;;;;;;;18.00;10.93;;;;;;;9.99;87.44;96012.19;5005624;28;20034;-63
2020/12/13 09:51:25;;;;;;;16.92;9.82;;;;;;;10.04;88.77;96009.03;5005358;28;20038;-63
2020/12/13 09:53:51;;;;;;;16.42;10.10;;;;;;;9.80;87.67;95951.69;5005332;28;20033;-64
2020/12/13 09:56:17;;;;;;;17.95;10.98;;;;;;;10.44;85.88;96011.50;5005337;28;20038;-62
2020/12/13 09:58:44;;;;;;;15.90;10.07;;;;;;;10.36;85.86;96009.91;5004116;28;20036;-62
2020/12/13 10:01:11;;;;;;;14.00;9.13;;;;;;;9.77;87.07;95957.22;5005274;28;20069;-63
2020/12/13 10:03:38;;;;;;;17.67;10.02;;;;;;;10.24;86.83;96001.97;5005474;28;20105;-62
2020/12/13 10:09:02;;;;;;;;;;;;;;;9.45;92.39;96004.09;5006026;28;20475;-63
2020/12/13 10:11:29;;;;;;;20.15;10.95;;;;;;;9.41;89.77;95934.19;5004499;28;19925;-63
2020/12/13 10:13:55;;;;;;;17.60;10.48;;;;;;;9.84;89.21;96010.56;5003595;28;20095;-64
2020/12/13 10:16:20;;;;;;;17.02;10.80;;;;;;;9.69;90.21;95997.84;5005465;28;20145;-62
2020/12/13 10:18:45;;;;;;;18.58;11.38;;;;;;;9.64;91.97;95994.69;5005259;28;20037;-64
2020/12/13 10:21:11;;;;;;;20.45;11.75;;;;;;;9.40;92.10;95996.19;5005082;28;20037;-62
2020/12/13 10:23:36;;;;;;;20.40;11.90;;;;;;;9.93;89.93;95999.91;5020093;28;20030;-62
2020/12/13 10:26:02;;;;;;;17.02;10.60;;;;;;;9.65;88.37;95996.28;5005257;28;20034;-62
2020/12/13 10:28:27;;;;;;;19.90;10.43;;;;;;;10.07;88.52;95993.63;5003659;28;20034;-62
2020/12/13 10:30:53;;;;;;;19.40;11.02;;;;;;;10.28;86.72;96002.78;5003997;28;20060;-63
2020/12/13 10:33:19;;;;;;;11.38;7.20;;;;;;;10.28;81.50;95990.91;5005130;28;20432;-63
2020/12/13 10:35:45;;;;;;;14.23;7.22;;;;;;;9.90;83.78;95992.41;5005190;28;20044;-63
2020/12/13 10:38:11;;;;;;;14.50;8.10;;;;;;;10.12;84.67;96005.13;5005077;28;20038;-63
2020/12/13 10:40:37;;;;;;;16.10;9.02;;;;;;;9.93;85.41;95997.16;5005017;28;20463;-63
2020/12/13 10:43:03;;;;;;;14.93;8.73;;;;;;;10.33;83.71;95988.56;5003780;28;20121;-62
2020/12/13 10:45:29;;;;;;;13.57;8.60;;;;;;;10.10;83.04;95930.00;5003497;28;20092;-63
2020/12/13 10:47:54;;;;;;;13.07;8.63;;;;;;;10.52;82.51;95990.94;5005150;28;20457;-63
2020/12/13 10:50:20;;;;;;;11.30;7.82;;;;;;;10.64;82.02;95981.44;5003493;28;20424;-62
2020/12/13 10:52:46;;;;;;;13.30;8.32;;;;;;;10.44;82.25;95938.72;5004447;28;20108;-63
2020/12/13 10:55:11;;;;;;;19.15;12.32;;;;;;;10.66;82.79;96002.00;5004486;28;20509;-62
2020/12/13 10:57:36;;;;;;;23.33;14.27;;;;;;;10.87;82.53;95992.91;5004891;28;20108;-63
2020/12/13 11:00:04;;;;;;;26.48;17.23;;;;;;;10.86;81.84;95982.22;5004705;28;20128;-63
2020/12/13 11:02:29;;;;;;;36.08;23.50;;;;;;;10.89;81.46;95989.72;5003312;28;20531;-62
2020/12/13 11:04:55;;;;;;;30.13;19.42;;;;;;;10.95;81.12;96000.03;5004862;28;20038;-63
2020/12/13 11:07:20;;;;;;;29.92;19.88;;;;;;;11.03;81.08;95992.47;5002804;28;20041;-63
2020/12/13 11:09:46;;;;;;;27.10;18.35;;;;;;;11.22;80.05;95994.81;5004346;28;20038;-63
2020/12/13 11:12:12;;;;;;;29.60;18.05;;;;;;;11.33;77.90;95988.06;5002852;28;20078;-63
2020/12/13 11:14:37;;;;;;;28.17;18.65;;;;;;;11.47;77.43;95967.81;5004440;28;20129;-62
2020/12/13 11:17:03;;;;;;;36.75;24.70;;;;;;;11.20;77.57;95936.22;5004575;28;20080;-63
2020/12/13 11:19:28;;;;;;;38.80;24.40;;;;;;;11.49;78.63;95982.06;5003168;28;20092;-63
2020/12/13 11:21:54;;;;;;;41.28;26.50;;;;;;;11.17;78.79;95937.00;5004680;28;20511;-63
2020/12/13 11:24:20;;;;;;;36.70;22.77;;;;;;;11.59;78.49;95964.56;5006574;28;20481;-63
2020/12/13 11:26:48;;;;;;;38.85;24.42;;;;;;;11.68;78.49;95962.19;5007728;28;20052;-63
2020/12/13 11:29:14;;;;;;;46.40;26.60;;;;;;;11.68;78.59;95973.28;5006193;28;20073;-62
2020/12/13 11:31:39;;;;;;;43.05;27.40;;;;;;;11.70;78.14;95970.88;5005931;28;20072;-63